createdAt,value
2024-04-21T00:01:20.971Z,85707.09
2024-04-21T00:03:47.839Z,85712.50
2024-04-21T00:06:14.263Z,85702.59
2024-04-21T00:08:40.546Z,85701.16
2024-04-21T00:11:06.954Z,85698.56
2024-04-21T00:13:33.247Z,85693.34
2024-04-21T00:15:59.593Z,85689.22
2024-04-21T00:18:25.926Z,85690.53
2024-04-21T00:20:52.186Z,85686.88
2024-04-21T00:23:18.455Z,85683.16
2024-04-21T00:25:44.724Z,85683.16
2024-04-21T00:28:11.083Z,85672.13
2024-04-21T00:30:37.435Z,85681.06
2024-04-21T00:33:03.944Z,85675.88
2024-04-21T00:35:30.287Z,85673.31
2024-04-21T00:37:56.567Z,85668.47
2024-04-21T00:40:24.222Z,85672.00
2024-04-21T00:42:50.841Z,85678.84
2024-04-21T00:45:22.801Z,85671.38
2024-04-21T00:47:55.666Z,85676.13
2024-04-21T00:50:21.958Z,85670.72
2024-04-21T00:52:48.233Z,85669.09
2024-04-21T00:55:14.536Z,85666.63
2024-04-21T00:57:40.870Z,85665.41
2024-04-21T01:00:07.175Z,85667.16
2024-04-21T01:02:33.524Z,85664.25
2024-04-21T01:04:59.874Z,85670.53
2024-04-21T01:07:26.212Z,85662.34
2024-04-21T01:09:52.498Z,85668.94
2024-04-21T01:12:18.796Z,85665.50
2024-04-21T01:14:45.060Z,85663.22
2024-04-21T01:17:11.330Z,85661.44
2024-04-21T01:19:37.635Z,85654.25
2024-04-21T01:22:03.969Z,85655.34
2024-04-21T01:24:30.254Z,85654.91
2024-04-21T01:26:56.630Z,85646.72
2024-04-21T01:29:22.897Z,85645.94
2024-04-21T01:31:49.176Z,85645.19
2024-04-21T01:34:15.529Z,85645.94
2024-04-21T01:36:41.856Z,85644.94
2024-04-21T01:39:08.109Z,85641.63
2024-04-21T01:41:34.370Z,85640.34
2024-04-21T01:44:00.624Z,85638.38
2024-04-21T01:46:26.928Z,85635.38
2024-04-21T01:48:53.269Z,85632.41
2024-04-21T01:51:19.702Z,85629.22
2024-04-21T01:53:45.956Z,85630.94
2024-04-21T01:56:12.218Z,85631.50
2024-04-21T01:58:38.492Z,85632.56
2024-04-21T02:01:04.810Z,85631.72
2024-04-21T02:03:31.150Z,85630.69
2024-04-21T02:05:57.449Z,85623.38
2024-04-21T02:08:23.702Z,85621.75
2024-04-21T02:10:50.009Z,85620.56
2024-04-21T02:13:16.315Z,85620.72
2024-04-21T02:15:42.648Z,85621.75
2024-04-21T02:18:08.952Z,85618.44
2024-04-21T02:20:35.210Z,85618.88
2024-04-21T02:23:01.488Z,85617.44
2024-04-21T02:25:27.866Z,85617.28
2024-04-21T02:27:54.247Z,85618.69
2024-04-21T02:30:22.468Z,85619.59
2024-04-21T02:32:50.100Z,85625.88
2024-04-21T02:35:16.407Z,85619.56
2024-04-21T02:37:42.670Z,85624.00
2024-04-21T02:40:08.956Z,85622.28
2024-04-21T02:42:35.238Z,85622.56
2024-04-21T02:45:01.564Z,85619.28
2024-04-21T02:47:27.858Z,85622.03
2024-04-21T02:49:54.175Z,85617.50
2024-04-21T02:52:20.475Z,85615.78
2024-04-21T02:54:46.792Z,85611.75
2024-04-21T02:57:13.105Z,85613.50
2024-04-21T02:59:39.367Z,85613.56
2024-04-21T03:02:05.623Z,85609.88
2024-04-21T03:04:32.007Z,85617.91
2024-04-21T03:06:58.481Z,85616.63
2024-04-21T03:09:24.731Z,85611.22
2024-04-21T03:11:50.977Z,85612.22
2024-04-21T03:14:17.249Z,85611.66
2024-04-21T03:16:43.518Z,85605.63
2024-04-21T03:19:09.807Z,85599.75
2024-04-21T03:21:36.160Z,85591.72
2024-04-21T03:24:02.429Z,85599.03
2024-04-21T03:26:28.743Z,85598.44
2024-04-21T03:28:55.031Z,85591.72
2024-04-21T03:31:21.388Z,85597.19
2024-04-21T03:33:47.700Z,85595.59
2024-04-21T03:36:14.031Z,85596.19
2024-04-21T03:38:40.300Z,85591.03
2024-04-21T03:41:06.602Z,85581.09
2024-04-21T03:43:32.877Z,85586.16
2024-04-21T03:45:59.253Z,85579.66
2024-04-21T03:48:25.612Z,85575.91
2024-04-21T03:50:51.916Z,85573.81
2024-04-21T03:53:19.555Z,85575.75
2024-04-21T03:55:45.833Z,85562.28
2024-04-21T03:58:12.146Z,85575.13
2024-04-21T04:00:38.468Z,85567.94
2024-04-21T04:03:04.774Z,85571.22
2024-04-21T04:05:31.059Z,85562.75
2024-04-21T04:07:57.340Z,85557.81
2024-04-21T04:10:23.684Z,85556.19
2024-04-21T04:12:50.142Z,85550.41
2024-04-21T04:15:16.413Z,85539.34
2024-04-21T04:17:42.782Z,85547.41
2024-04-21T04:20:09.131Z,85541.78
2024-04-21T04:22:35.397Z,85538.69
2024-04-21T04:25:01.685Z,85537.06
2024-04-21T04:27:27.986Z,85534.16
2024-04-21T04:29:54.269Z,85530.69
2024-04-21T04:32:20.565Z,85533.19
2024-04-21T04:34:46.831Z,85522.47
2024-04-21T04:37:13.188Z,85530.06
2024-04-21T04:39:39.450Z,85519.09
2024-04-21T04:42:05.819Z,85517.22
2024-04-21T04:44:32.132Z,85513.59
2024-04-21T04:46:58.422Z,85514.06
2024-04-21T04:49:24.735Z,85516.91
2024-04-21T04:51:51.058Z,85515.06
2024-04-21T04:54:17.323Z,85504.91
2024-04-21T04:56:43.638Z,85498.66
2024-04-21T04:59:09.935Z,85497.31
2024-04-21T05:01:36.278Z,85499.88
2024-04-21T05:04:02.663Z,85493.28
2024-04-21T05:06:28.968Z,85489.88
2024-04-21T05:08:55.261Z,85487.91
2024-04-21T05:11:21.567Z,85482.78
2024-04-21T05:13:47.851Z,85487.69
2024-04-21T05:16:14.149Z,85490.53
2024-04-21T05:18:40.434Z,85503.44
2024-04-21T05:21:06.697Z,85509.25
2024-04-21T05:23:32.989Z,85499.22
2024-04-21T05:25:59.284Z,85495.25
2024-04-21T05:28:36.706Z,85504.44
2024-04-21T05:31:11.608Z,85505.91
2024-04-21T05:33:37.919Z,85502.63
2024-04-21T05:36:04.195Z,85499.50
2024-04-21T05:38:30.488Z,85502.28
2024-04-21T05:40:56.788Z,85494.94
2024-04-21T05:43:23.099Z,85498.06
2024-04-21T05:45:49.443Z,85494.47
2024-04-21T05:48:15.755Z,85491.88
2024-04-21T05:50:42.013Z,85490.91
2024-04-21T05:53:08.302Z,85489.06
2024-04-21T05:55:34.575Z,85483.84
2024-04-21T05:58:00.880Z,85482.38
2024-04-21T06:00:27.243Z,85484.91
2024-04-21T06:02:53.584Z,85485.81
2024-04-21T06:05:19.956Z,85483.84
2024-04-21T06:07:46.230Z,85482.38
2024-04-21T06:10:12.576Z,85484.53
2024-04-21T06:12:38.881Z,85482.41
2024-04-21T06:15:05.137Z,85488.19
2024-04-21T06:17:31.509Z,85482.28
2024-04-21T06:19:57.813Z,85482.88
2024-04-21T06:22:24.142Z,85478.47
2024-04-21T06:24:50.451Z,85477.72
2024-04-21T06:27:16.726Z,85478.94
2024-04-21T06:29:43.002Z,85484.25
2024-04-21T06:32:09.294Z,85480.25
2024-04-21T06:34:35.556Z,85477.56
2024-04-21T06:37:01.859Z,85473.97
2024-04-21T06:39:28.144Z,85485.50
2024-04-21T06:41:54.406Z,85474.78
2024-04-21T06:44:20.701Z,85470.50
2024-04-21T06:46:46.976Z,85468.59
2024-04-21T06:49:13.294Z,85473.41
2024-04-21T06:51:39.647Z,85468.44
2024-04-21T06:54:05.909Z,85467.75
2024-04-21T06:56:32.171Z,85465.63
2024-04-21T06:58:58.437Z,85464.94
2024-04-21T07:01:24.822Z,85470.13
2024-04-21T07:03:51.310Z,85468.94
2024-04-21T07:06:17.679Z,85466.34
2024-04-21T07:08:43.976Z,85462.78
2024-04-21T07:11:10.274Z,85471.78
2024-04-21T07:13:36.590Z,85476.28
2024-04-21T07:16:02.907Z,85472.97
2024-04-21T07:18:29.280Z,85465.16
2024-04-21T07:20:55.590Z,85465.13
2024-04-21T07:23:21.866Z,85460.41
2024-04-21T07:25:48.168Z,85460.66
2024-04-21T07:28:14.523Z,85454.03
2024-04-21T07:30:40.871Z,85465.59
2024-04-21T07:33:07.203Z,85464.22
2024-04-21T07:35:33.504Z,85455.38
2024-04-21T07:38:01.201Z,85465.59
2024-04-21T07:40:28.621Z,85452.75
2024-04-21T07:42:54.939Z,85450.97
2024-04-21T07:45:21.215Z,85443.25
2024-04-21T07:47:47.621Z,85445.63
2024-04-21T07:50:13.966Z,85442.41
2024-04-21T07:52:40.231Z,85439.66
2024-04-21T07:55:06.568Z,85438.28
2024-04-21T07:57:32.890Z,85423.59
2024-04-21T07:59:59.170Z,85423.94
2024-04-21T08:02:29.106Z,85412.63
2024-04-21T08:04:56.958Z,85404.91
2024-04-21T08:07:23.300Z,85402.72
2024-04-21T08:09:49.655Z,85395.50
2024-04-21T08:12:15.931Z,85393.91
2024-04-21T08:14:42.201Z,85386.31
2024-04-21T08:17:08.501Z,85378.59
2024-04-21T08:19:34.789Z,85380.22
2024-04-21T08:22:01.097Z,85377.84
2024-04-21T08:24:27.380Z,85373.31
2024-04-21T08:26:53.650Z,85371.72
2024-04-21T08:29:19.925Z,85366.72
2024-04-21T08:31:46.232Z,85367.72
2024-04-21T08:34:12.564Z,85382.41
2024-04-21T08:36:38.847Z,85381.09
2024-04-21T08:39:05.106Z,85387.38
2024-04-21T08:41:31.380Z,85375.44
2024-04-21T08:43:57.663Z,85383.38
2024-04-21T08:46:24.020Z,85392.22
2024-04-21T08:48:50.381Z,85386.97
2024-04-21T08:51:16.654Z,85384.22
2024-04-21T08:53:42.929Z,85385.06
2024-04-21T08:56:09.190Z,85389.06
2024-04-21T08:58:36.160Z,85383.59
2024-04-21T09:01:02.698Z,85381.78
2024-04-21T09:03:29.002Z,85382.88
2024-04-21T09:05:55.281Z,85383.63
2024-04-21T09:08:21.582Z,85372.06
2024-04-21T09:10:47.880Z,85380.78
2024-04-21T09:13:14.219Z,85366.06
2024-04-21T09:15:40.521Z,85363.31
2024-04-21T09:18:06.903Z,85355.88
2024-04-21T09:20:33.232Z,85347.91
2024-04-21T09:22:59.525Z,85344.19
2024-04-21T09:25:26.040Z,85356.41
2024-04-21T09:27:52.426Z,85362.78
2024-04-21T09:30:18.919Z,85368.25
2024-04-21T09:32:45.252Z,85357.41
2024-04-21T09:35:11.587Z,85352.44
2024-04-21T09:37:37.877Z,85355.50
2024-04-21T09:40:04.231Z,85350.78
2024-04-21T09:42:30.551Z,85359.72
2024-04-21T09:44:56.824Z,85361.69
2024-04-21T09:47:23.152Z,85353.84
2024-04-21T09:49:49.449Z,85360.44
2024-04-21T09:52:15.889Z,85355.34
2024-04-21T09:54:42.225Z,85356.41
2024-04-21T09:57:08.510Z,85370.50
2024-04-21T09:59:34.785Z,85364.25
2024-04-21T10:02:01.279Z,85354.13
2024-04-21T10:04:27.587Z,85357.31
2024-04-21T10:06:53.900Z,85366.22
2024-04-21T10:09:20.231Z,85348.16
2024-04-21T10:11:46.502Z,85344.19
2024-04-21T10:14:12.769Z,85343.88
2024-04-21T10:16:39.041Z,85338.88
2024-04-21T10:19:05.337Z,85341.84
2024-04-21T10:21:31.611Z,85336.91
2024-04-21T10:23:57.887Z,85334.75
2024-04-21T10:26:24.162Z,85338.22
2024-04-21T10:28:50.436Z,85339.97
2024-04-21T10:31:16.703Z,85336.16
2024-04-21T10:33:42.965Z,85333.06
2024-04-21T10:36:09.280Z,85337.91
2024-04-21T10:38:35.554Z,85331.28
2024-04-21T10:41:01.827Z,85327.34
2024-04-21T10:43:28.119Z,85308.34
2024-04-21T10:45:54.412Z,85328.97
2024-04-21T10:48:20.843Z,85315.25
2024-04-21T10:50:47.124Z,85292.00
2024-04-21T10:53:13.382Z,85285.09
2024-04-21T10:55:39.673Z,85281.09
2024-04-21T10:58:06.026Z,85274.56
2024-04-21T11:00:32.383Z,85264.72
2024-04-21T11:02:58.798Z,85254.91
2024-04-21T11:05:25.141Z,85257.28
2024-04-21T11:07:52.911Z,85268.69
2024-04-21T11:10:20.029Z,85263.47
2024-04-21T11:12:46.367Z,85261.41
2024-04-21T11:15:12.668Z,85255.59
2024-04-21T11:17:38.976Z,85263.31
2024-04-21T11:20:05.280Z,85260.44
2024-04-21T11:22:31.614Z,85266.22
2024-04-21T11:24:57.898Z,85268.44
2024-04-21T11:27:24.178Z,85266.28
2024-04-21T11:29:50.466Z,85282.00
2024-04-21T11:32:16.805Z,85297.44
2024-04-21T11:34:43.177Z,85275.75
2024-04-21T11:37:09.455Z,85280.31
2024-04-21T11:39:35.742Z,85277.97
2024-04-21T11:42:02.010Z,85279.25
2024-04-21T11:44:28.288Z,85279.72
2024-04-21T11:46:54.550Z,85265.31
2024-04-21T11:49:20.847Z,85274.03
2024-04-21T11:51:47.121Z,85272.00
2024-04-21T11:54:13.405Z,85267.69
2024-04-21T11:56:39.680Z,85252.41
2024-04-21T11:59:05.967Z,85247.25
2024-04-21T12:01:40.393Z,85251.72
2024-04-21T12:04:14.500Z,85244.66
2024-04-21T12:06:43.651Z,85238.09
2024-04-21T12:09:10.197Z,85228.88
2024-04-21T12:11:36.494Z,85230.16
2024-04-21T12:14:02.775Z,85227.59
2024-04-21T12:16:29.275Z,85226.50
2024-04-21T12:18:55.621Z,85234.69
2024-04-21T12:21:21.894Z,85226.00
2024-04-21T12:23:48.148Z,85236.34
2024-04-21T12:26:14.401Z,85246.59
2024-04-21T12:28:40.667Z,85242.47
2024-04-21T12:31:06.983Z,85243.31
2024-04-21T12:33:33.340Z,85251.19
2024-04-21T12:35:59.679Z,85236.66
2024-04-21T12:38:25.973Z,85234.78
2024-04-21T12:40:52.321Z,85234.94
2024-04-21T12:43:18.642Z,85235.47
2024-04-21T12:45:44.977Z,85235.56
2024-04-21T12:48:12.069Z,85223.97
2024-04-21T12:50:39.269Z,85221.25
2024-04-21T12:53:05.572Z,85220.47
2024-04-21T12:55:31.889Z,85220.38
2024-04-21T12:57:58.267Z,85214.59
2024-04-21T13:00:24.572Z,85206.59
2024-04-21T13:02:50.897Z,85199.09
2024-04-21T13:05:17.261Z,85184.34
2024-04-21T13:07:43.543Z,85189.84
2024-04-21T13:10:09.856Z,85192.25
2024-04-21T13:12:36.159Z,85188.22
2024-04-21T13:15:02.531Z,85193.25
2024-04-21T13:17:28.803Z,85206.84
2024-04-21T13:19:55.104Z,85212.56
2024-04-21T13:22:21.760Z,85222.56
2024-04-21T13:24:48.121Z,85219.50
2024-04-21T13:27:14.381Z,85228.41
2024-04-21T13:29:43.136Z,85238.53
2024-04-21T13:32:09.755Z,85246.66
2024-04-21T13:34:36.078Z,85256.03
2024-04-21T13:37:02.377Z,85239.72
2024-04-21T13:39:28.653Z,85269.84
2024-04-21T13:41:54.918Z,85274.97
2024-04-21T13:44:21.203Z,85284.13
2024-04-21T13:46:47.496Z,85286.56
2024-04-21T13:49:13.817Z,85293.97
2024-04-21T13:51:40.122Z,85290.00
2024-04-21T13:54:06.403Z,85297.72
2024-04-21T13:56:32.667Z,85301.97
2024-04-21T13:58:58.923Z,85306.56
2024-04-21T14:01:25.389Z,85296.88
2024-04-21T14:03:51.758Z,85297.56
2024-04-21T14:06:21.140Z,85293.91
2024-04-21T14:08:48.473Z,85305.78
2024-04-21T14:11:14.801Z,85290.38
2024-04-21T14:13:41.094Z,85275.66
2024-04-21T14:16:07.383Z,85276.00
2024-04-21T14:18:33.725Z,85266.53
2024-04-21T14:20:59.984Z,85262.38
2024-04-21T14:23:27.126Z,85253.78
2024-04-21T14:25:54.274Z,85249.28
2024-04-21T14:28:20.549Z,85241.13
2024-04-21T14:30:46.821Z,85232.63
2024-04-21T14:33:13.230Z,85230.38
2024-04-21T14:35:39.579Z,85237.81
2024-04-21T14:38:05.830Z,85229.69
2024-04-21T14:40:32.215Z,85228.53
2024-04-21T14:42:58.574Z,85223.50
2024-04-21T14:45:24.872Z,85211.78
2024-04-21T14:47:51.242Z,85204.81
2024-04-21T14:50:17.542Z,85215.72
2024-04-21T14:52:43.842Z,85214.69
2024-04-21T14:55:10.176Z,85222.03
2024-04-21T14:57:36.453Z,85220.28
2024-04-21T15:00:02.811Z,85213.84
2024-04-21T15:02:29.172Z,85213.69
2024-04-21T15:04:55.518Z,85212.50
2024-04-21T15:07:21.930Z,85212.63
2024-04-21T15:09:48.214Z,85212.03
2024-04-21T15:12:15.808Z,85214.72
2024-04-21T15:14:42.237Z,85219.84
2024-04-21T15:17:08.565Z,85223.06
2024-04-21T15:19:34.916Z,85240.91
2024-04-21T15:22:01.325Z,85250.94
2024-04-21T15:24:27.613Z,85275.59
2024-04-21T15:26:53.907Z,85295.69
2024-04-21T15:29:20.165Z,85307.41
2024-04-21T15:31:46.527Z,85298.53
2024-04-21T15:34:13.028Z,85309.47
2024-04-21T15:36:39.315Z,85309.81
2024-04-21T15:39:05.602Z,85299.75
2024-04-21T15:41:31.853Z,85328.44
2024-04-21T15:43:58.109Z,85318.06
2024-04-21T15:46:24.488Z,85330.38
2024-04-21T15:48:50.786Z,85339.38
2024-04-21T15:51:17.035Z,85331.00
2024-04-21T15:53:43.300Z,85334.81
2024-04-21T15:56:09.575Z,85354.63
2024-04-21T15:58:35.913Z,85353.66
2024-04-21T16:01:02.457Z,85370.25
2024-04-21T16:03:28.848Z,85367.72
2024-04-21T16:05:55.143Z,85365.56
2024-04-21T16:08:21.424Z,85361.44
2024-04-21T16:10:47.886Z,85358.31
2024-04-21T16:13:14.338Z,85358.69
2024-04-21T16:15:40.693Z,85360.47
2024-04-21T16:18:07.074Z,85371.00
2024-04-21T16:20:33.409Z,85362.38
2024-04-21T16:22:59.724Z,85361.66
2024-04-21T16:25:26.075Z,85370.16
2024-04-21T16:27:52.348Z,85369.81
2024-04-21T16:30:18.613Z,85360.56
2024-04-21T16:32:45.018Z,85358.47
2024-04-21T16:35:11.370Z,85362.41
2024-04-21T16:37:37.651Z,85355.00
2024-04-21T16:40:03.999Z,85355.84
2024-04-21T16:42:30.265Z,85362.13
2024-04-21T16:44:56.548Z,85352.66
2024-04-21T16:47:22.825Z,85357.19
2024-04-21T16:49:49.099Z,85360.09
2024-04-21T16:52:15.355Z,85351.69
2024-04-21T16:54:41.747Z,85366.03
2024-04-21T16:57:14.782Z,85364.38
2024-04-21T16:59:47.656Z,85365.13
2024-04-21T17:02:13.944Z,85366.03
2024-04-21T17:04:42.375Z,85359.09
2024-04-21T17:07:09.044Z,85365.09
2024-04-21T17:09:35.313Z,85370.28
2024-04-21T17:12:01.614Z,85371.13
2024-04-21T17:14:27.883Z,85374.41
2024-04-21T17:16:54.183Z,85378.84
2024-04-21T17:19:20.503Z,85373.94
2024-04-21T17:21:46.764Z,85377.63
2024-04-21T17:24:13.171Z,85380.63
2024-04-21T17:26:39.429Z,85379.59
2024-04-21T17:29:07.409Z,85383.66
2024-04-21T17:31:35.462Z,85383.91
2024-04-21T17:34:01.813Z,85392.75
2024-04-21T17:36:28.088Z,85385.25
2024-04-21T17:38:54.356Z,85395.91
2024-04-21T17:41:20.654Z,85386.28
2024-04-21T17:43:46.919Z,85391.72
2024-04-21T17:46:13.222Z,85396.06
2024-04-21T17:48:39.478Z,85379.34
2024-04-21T17:51:05.811Z,85389.63
2024-04-21T17:53:32.084Z,85398.16
2024-04-21T17:55:58.370Z,85389.91
2024-04-21T17:58:24.752Z,85390.13
2024-04-21T18:00:51.059Z,85386.41
2024-04-21T18:03:17.363Z,85388.81
2024-04-21T18:05:43.635Z,85382.94
2024-04-21T18:08:09.907Z,85383.56
2024-04-21T18:10:36.265Z,85377.25
2024-04-21T18:13:02.599Z,85386.22
2024-04-21T18:15:28.894Z,85381.78
2024-04-21T18:17:55.213Z,85379.41
2024-04-21T18:20:21.513Z,85376.28
2024-04-21T18:22:47.794Z,85385.19
2024-04-21T18:25:14.158Z,85381.16
2024-04-21T18:27:40.542Z,85384.44
2024-04-21T18:30:06.819Z,85396.16
2024-04-21T18:32:33.159Z,85384.03
2024-04-21T18:34:59.479Z,85391.22
2024-04-21T18:37:25.770Z,85385.09
2024-04-21T18:39:52.051Z,85390.06
2024-04-21T18:42:20.575Z,85388.34
2024-04-21T18:44:46.890Z,85386.78
2024-04-21T18:47:13.354Z,85390.22
2024-04-21T18:49:39.752Z,85388.72
2024-04-21T18:52:06.048Z,85391.94
2024-04-21T18:54:32.330Z,85395.03
2024-04-21T18:56:58.596Z,85401.38
2024-04-21T18:59:24.880Z,85400.09
2024-04-21T19:01:51.234Z,85401.28
2024-04-21T19:04:17.600Z,85404.53
2024-04-21T19:06:43.907Z,85404.84
2024-04-21T19:09:10.177Z,85401.88
2024-04-21T19:11:36.492Z,85403.66
2024-04-21T19:14:02.786Z,85401.69
2024-04-21T19:16:29.142Z,85400.34
2024-04-21T19:18:55.473Z,85409.13
2024-04-21T19:21:21.741Z,85406.06
2024-04-21T19:23:48.043Z,85400.31
2024-04-21T19:26:14.334Z,85402.91
2024-04-21T19:28:40.621Z,85400.97
2024-04-21T19:31:07.010Z,85414.03
2024-04-21T19:33:33.750Z,85406.59
2024-04-21T19:36:00.082Z,85413.38
2024-04-21T19:38:26.347Z,85412.41
2024-04-21T19:40:52.678Z,85422.59
2024-04-21T19:43:18.987Z,85434.94
2024-04-21T19:45:45.284Z,85428.44
2024-04-21T19:48:11.839Z,85425.19
2024-04-21T19:50:38.182Z,85430.03
2024-04-21T19:53:04.481Z,85439.28
2024-04-21T19:55:30.825Z,85434.09
2024-04-21T19:57:57.090Z,85437.84
2024-04-21T20:00:23.347Z,85439.38
2024-04-21T20:02:49.657Z,85437.03
2024-04-21T20:05:15.998Z,85441.22
2024-04-21T20:07:42.388Z,85429.25
2024-04-21T20:10:08.735Z,85429.44
2024-04-21T20:12:35.089Z,85416.59
2024-04-21T20:15:01.353Z,85422.63
2024-04-21T20:17:27.737Z,85414.34
2024-04-21T20:19:54.111Z,85424.63
2024-04-21T20:22:20.452Z,85429.75
2024-04-21T20:24:46.740Z,85421.97
2024-04-21T20:27:13.002Z,85420.19
2024-04-21T20:29:39.274Z,85416.31
2024-04-21T20:32:05.616Z,85413.09
2024-04-21T20:34:31.970Z,85418.34
2024-04-21T20:36:58.251Z,85420.03
2024-04-21T20:39:24.576Z,85421.34
2024-04-21T20:41:50.848Z,85424.69
2024-04-21T20:44:17.116Z,85424.75
2024-04-21T20:46:43.422Z,85425.41
2024-04-21T20:49:09.798Z,85432.59
2024-04-21T20:51:36.103Z,85422.28
2024-04-21T20:54:02.386Z,85423.03
2024-04-21T20:56:28.679Z,85427.94
2024-04-21T20:58:55.036Z,85418.63
2024-04-21T21:01:21.800Z,85419.06
2024-04-21T21:03:48.354Z,85419.31
2024-04-21T21:06:14.672Z,85418.38
2024-04-21T21:08:40.940Z,85417.63
2024-04-21T21:11:07.327Z,85413.88
2024-04-21T21:13:33.697Z,85414.34
2024-04-21T21:15:59.964Z,85414.53
2024-04-21T21:18:26.388Z,85406.44
2024-04-21T21:20:52.715Z,85400.94
2024-04-21T21:23:18.983Z,85404.41
2024-04-21T21:25:45.283Z,85409.66
2024-04-21T21:28:11.577Z,85416.97
2024-04-21T21:30:37.873Z,85420.66
2024-04-21T21:33:04.181Z,85413.56
2024-04-21T21:35:30.561Z,85417.28
2024-04-21T21:37:56.835Z,85421.41
2024-04-21T21:40:23.159Z,85414.41
2024-04-21T21:42:49.456Z,85413.31
2024-04-21T21:45:15.719Z,85418.22
2024-04-21T21:47:42.136Z,85411.63
2024-04-21T21:50:08.476Z,85409.91
2024-04-21T21:52:34.790Z,85413.56
2024-04-21T21:55:01.069Z,85412.41
2024-04-21T21:57:27.343Z,85413.78
2024-04-21T21:59:53.600Z,85423.44
2024-04-21T22:02:19.968Z,85412.97
2024-04-21T22:04:46.327Z,85411.19
2024-04-21T22:07:12.623Z,85415.09
2024-04-21T22:09:38.909Z,85420.00
2024-04-21T22:12:05.171Z,85421.16
2024-04-21T22:14:31.424Z,85409.84
2024-04-21T22:16:57.710Z,85412.53
2024-04-21T22:19:24.012Z,85411.34
2024-04-21T22:21:50.277Z,85406.78
2024-04-21T22:24:16.543Z,85404.75
2024-04-21T22:26:42.835Z,85413.69
2024-04-21T22:29:09.095Z,85403.03
2024-04-21T22:31:45.981Z,85406.34
2024-04-21T22:34:19.596Z,85402.38
2024-04-21T22:36:45.885Z,85399.06
2024-04-21T22:39:12.174Z,85400.13
2024-04-21T22:41:38.431Z,85406.22
2024-04-21T22:44:04.735Z,85402.16
2024-04-21T22:46:31.044Z,85403.31
2024-04-21T22:48:57.331Z,85397.31
2024-04-21T22:51:23.603Z,85408.16
2024-04-21T22:53:49.877Z,85405.16
2024-04-21T22:56:16.128Z,85402.38
2024-04-21T22:58:42.440Z,85405.19
2024-04-21T23:01:08.963Z,85399.56
2024-04-21T23:03:35.343Z,85403.25
2024-04-21T23:06:01.616Z,85406.66
2024-04-21T23:08:27.880Z,85402.38
2024-04-21T23:10:54.267Z,85405.53
2024-04-21T23:13:20.597Z,85411.69
2024-04-21T23:15:46.892Z,85396.13
2024-04-21T23:18:13.181Z,85396.31
2024-04-21T23:20:39.445Z,85398.25
2024-04-21T23:23:05.711Z,85397.69
2024-04-21T23:25:32.021Z,85390.63
2024-04-21T23:27:58.323Z,85391.88
2024-04-21T23:30:24.631Z,85393.03
2024-04-21T23:32:50.991Z,85392.63
2024-04-21T23:35:17.295Z,85391.91
2024-04-21T23:37:43.597Z,85382.66
2024-04-21T23:40:09.910Z,85381.50
2024-04-21T23:42:36.197Z,85381.81
2024-04-21T23:45:02.483Z,85384.56
2024-04-21T23:47:28.826Z,85383.22
2024-04-21T23:49:55.110Z,85382.72
2024-04-21T23:52:21.469Z,85377.19
2024-04-21T23:54:47.767Z,85379.09
2024-04-21T23:57:14.045Z,85384.63
2024-04-21T23:59:40.333Z,85372.91
